sensor_id;sensor_type;location;lat;lon;timestamp;P1;durP1;ratioP1;P2;durP2;ratioP2
46889;SDS011;32625;51.080;16.970;2022-09-16T00:00:32;5.75;;;2.47;;
46889;SDS011;32625;51.080;16.970;2022-09-16T00:03:00;6.15;;;2.20;;
46889;SDS011;32625;51.080;16.970;2022-09-16T00:05:28;4.53;;;2.28;;
46889;SDS011;32625;51.080;16.970;2022-09-16T00:07:55;9.82;;;2.15;;
46889;SDS011;32625;51.080;16.970;2022-09-16T00:10:22;4.88;;;2.47;;
46889;SDS011;32625;51.080;16.970;2022-09-16T00:12:49;8.40;;;2.60;;
46889;SDS011;32625;51.080;16.970;2022-09-16T00:15:17;6.90;;;2.35;;
46889;SDS011;32625;51.080;16.970;2022-09-16T00:17:44;4.68;;;2.38;;
46889;SDS011;32625;51.080;16.970;2022-09-16T00:20:12;5.22;;;2.58;;
46889;SDS011;32625;51.080;16.970;2022-09-16T00:22:39;4.72;;;2.63;;
46889;SDS011;32625;51.080;16.970;2022-09-16T00:25:06;5.72;;;2.30;;
46889;SDS011;32625;51.080;16.970;2022-09-16T00:27:34;7.20;;;2.40;;
46889;SDS011;32625;51.080;16.970;2022-09-16T00:30:01;11.60;;;2.92;;
46889;SDS011;32625;51.080;16.970;2022-09-16T00:32:29;4.30;;;2.40;;
46889;SDS011;32625;51.080;16.970;2022-09-16T00:34:56;3.63;;;2.53;;
46889;SDS011;32625;51.080;16.970;2022-09-16T00:37:23;10.15;;;2.78;;
46889;SDS011;32625;51.080;16.970;2022-09-16T00:39:50;6.40;;;2.22;;
46889;SDS011;32625;51.080;16.970;2022-09-16T00:42:18;8.48;;;2.90;;
46889;SDS011;32625;51.080;16.970;2022-09-16T00:50:09;3.38;;;2.00;;
46889;SDS011;32625;51.080;16.970;2022-09-16T00:52:42;10.05;;;2.47;;
46889;SDS011;32625;51.080;16.970;2022-09-16T00:55:10;5.72;;;3.10;;
46889;SDS011;32625;51.080;16.970;2022-09-16T00:57:42;4.90;;;2.33;;
46889;SDS011;32625;51.080;16.970;2022-09-16T01:00:11;4.82;;;2.17;;
46889;SDS011;32625;51.080;16.970;2022-09-16T01:02:42;3.40;;;2.00;;
46889;SDS011;32625;51.080;16.970;2022-09-16T01:05:15;5.15;;;2.05;;
46889;SDS011;32625;51.080;16.970;2022-09-16T01:07:49;6.57;;;2.38;;
46889;SDS011;32625;51.080;16.970;2022-09-16T01:10:20;5.10;;;2.45;;
46889;SDS011;32625;51.080;16.970;2022-09-16T01:12:56;5.47;;;2.15;;
46889;SDS011;32625;51.080;16.970;2022-09-16T01:15:42;4.35;;;2.58;;
46889;SDS011;32625;51.080;16.970;2022-09-16T01:21:54;7.30;;;2.97;;
46889;SDS011;32625;51.080;16.970;2022-09-16T01:24:50;3.38;;;1.80;;
46889;SDS011;32625;51.080;16.970;2022-09-16T01:36:44;7.50;;;2.15;;
46889;SDS011;32625;51.080;16.970;2022-09-16T01:39:48;4.35;;;1.80;;
46889;SDS011;32625;51.080;16.970;2022-09-16T01:47:35;4.95;;;1.92;;
46889;SDS011;32625;51.080;16.970;2022-09-16T01:53:26;6.05;;;2.13;;
46889;SDS011;32625;51.080;16.970;2022-09-16T01:58:22;7.63;;;2.20;;
46889;SDS011;32625;51.080;16.970;2022-09-16T02:01:19;3.10;;;2.10;;
46889;SDS011;32625;51.080;16.970;2022-09-16T02:03:57;5.28;;;2.08;;
46889;SDS011;32625;51.080;16.970;2022-09-16T02:06:28;6.82;;;2.60;;
46889;SDS011;32625;51.080;16.970;2022-09-16T02:08:59;8.32;;;2.70;;
46889;SDS011;32625;51.080;16.970;2022-09-16T02:11:34;7.75;;;2.10;;
46889;SDS011;32625;51.080;16.970;2022-09-16T02:14:08;7.82;;;2.58;;
46889;SDS011;32625;51.080;16.970;2022-09-16T02:16:49;5.07;;;2.20;;
46889;SDS011;32625;51.080;16.970;2022-09-16T02:19:27;8.18;;;2.70;;
46889;SDS011;32625;51.080;16.970;2022-09-16T02:22:00;6.72;;;2.33;;
46889;SDS011;32625;51.080;16.970;2022-09-16T02:24:32;6.93;;;2.20;;
46889;SDS011;32625;51.080;16.970;2022-09-16T02:27:03;6.82;;;2.28;;
46889;SDS011;32625;51.080;16.970;2022-09-16T02:29:40;6.18;;;2.30;;
46889;SDS011;32625;51.080;16.970;2022-09-16T02:32:14;4.95;;;1.90;;
46889;SDS011;32625;51.080;16.970;2022-09-16T02:34:42;3.55;;;1.70;;
46889;SDS011;32625;51.080;16.970;2022-09-16T02:37:14;5.05;;;2.00;;
46889;SDS011;32625;51.080;16.970;2022-09-16T02:39:46;3.90;;;1.90;;
46889;SDS011;32625;51.080;16.970;2022-09-16T02:42:16;4.63;;;2.75;;
46889;SDS011;32625;51.080;16.970;2022-09-16T02:44:43;3.50;;;1.70;;
46889;SDS011;32625;51.080;16.970;2022-09-16T02:47:14;3.45;;;1.63;;
46889;SDS011;32625;51.080;16.970;2022-09-16T02:49:54;6.97;;;1.63;;
46889;SDS011;32625;51.080;16.970;2022-09-16T02:52:43;5.78;;;1.90;;
46889;SDS011;32625;51.080;16.970;2022-09-16T02:58:17;6.00;;;1.80;;
46889;SDS011;32625;51.080;16.970;2022-09-16T03:00:45;3.38;;;1.60;;
46889;SDS011;32625;51.080;16.970;2022-09-16T03:03:14;12.05;;;2.10;;
46889;SDS011;32625;51.080;16.970;2022-09-16T03:08:32;5.43;;;1.52;;
46889;SDS011;32625;51.080;16.970;2022-09-16T03:11:07;6.05;;;1.77;;
46889;SDS011;32625;51.080;16.970;2022-09-16T03:21:45;4.65;;;1.58;;
46889;SDS011;32625;51.080;16.970;2022-09-16T03:24:24;4.30;;;1.60;;
46889;SDS011;32625;51.080;16.970;2022-09-16T03:27:00;4.65;;;1.83;;
46889;SDS011;32625;51.080;16.970;2022-09-16T03:29:55;5.43;;;1.88;;
46889;SDS011;32625;51.080;16.970;2022-09-16T03:35:03;5.57;;;1.95;;
46889;SDS011;32625;51.080;16.970;2022-09-16T03:37:42;5.57;;;2.20;;
46889;SDS011;32625;51.080;16.970;2022-09-16T03:40:12;3.45;;;1.90;;
46889;SDS011;32625;51.080;16.970;2022-09-16T03:42:42;4.85;;;1.98;;
46889;SDS011;32625;51.080;16.970;2022-09-16T03:45:20;11.82;;;2.10;;
46889;SDS011;32625;51.080;16.970;2022-09-16T03:47:48;5.20;;;2.00;;
46889;SDS011;32625;51.080;16.970;2022-09-16T03:50:16;7.55;;;2.08;;
46889;SDS011;32625;51.080;16.970;2022-09-16T03:52:45;5.18;;;2.00;;
46889;SDS011;32625;51.080;16.970;2022-09-16T03:55:12;4.93;;;2.08;;
46889;SDS011;32625;51.080;16.970;2022-09-16T03:57:39;4.72;;;2.10;;
46889;SDS011;32625;51.080;16.970;2022-09-16T04:00:06;6.25;;;1.80;;
46889;SDS011;32625;51.080;16.970;2022-09-16T04:02:37;5.05;;;2.05;;
46889;SDS011;32625;51.080;16.970;2022-09-16T04:05:05;4.72;;;2.05;;
46889;SDS011;32625;51.080;16.970;2022-09-16T04:07:33;4.32;;;2.15;;
46889;SDS011;32625;51.080;16.970;2022-09-16T04:10:01;3.42;;;1.98;;
46889;SDS011;32625;51.080;16.970;2022-09-16T04:12:29;6.15;;;2.70;;
46889;SDS011;32625;51.080;16.970;2022-09-16T04:14:56;5.22;;;2.10;;
46889;SDS011;32625;51.080;16.970;2022-09-16T04:17:26;7.20;;;2.13;;
46889;SDS011;32625;51.080;16.970;2022-09-16T04:19:53;4.40;;;2.22;;
46889;SDS011;32625;51.080;16.970;2022-09-16T04:22:20;3.20;;;2.03;;
46889;SDS011;32625;51.080;16.970;2022-09-16T04:24:47;4.97;;;2.50;;
46889;SDS011;32625;51.080;16.970;2022-09-16T04:27:14;8.60;;;2.33;;
46889;SDS011;32625;51.080;16.970;2022-09-16T04:29:41;4.47;;;2.13;;
46889;SDS011;32625;51.080;16.970;2022-09-16T04:32:08;9.07;;;2.28;;
46889;SDS011;32625;51.080;16.970;2022-09-16T04:34:35;7.07;;;2.00;;
46889;SDS011;32625;51.080;16.970;2022-09-16T04:37:02;5.93;;;2.08;;
46889;SDS011;32625;51.080;16.970;2022-09-16T04:39:30;4.55;;;2.20;;
46889;SDS011;32625;51.080;16.970;2022-09-16T04:41:57;6.35;;;2.20;;
46889;SDS011;32625;51.080;16.970;2022-09-16T04:44:25;3.85;;;1.90;;
46889;SDS011;32625;51.080;16.970;2022-09-16T04:46:52;4.88;;;2.15;;
46889;SDS011;32625;51.080;16.970;2022-09-16T04:49:20;6.88;;;3.28;;
46889;SDS011;32625;51.080;16.970;2022-09-16T04:51:47;6.43;;;2.10;;
46889;SDS011;32625;51.080;16.970;2022-09-16T04:54:16;4.22;;;2.20;;
46889;SDS011;32625;51.080;16.970;2022-09-16T04:56:43;3.95;;;1.88;;
46889;SDS011;32625;51.080;16.970;2022-09-16T04:59:10;4.95;;;2.30;;
46889;SDS011;32625;51.080;16.970;2022-09-16T05:01:37;4.97;;;1.80;;
46889;SDS011;32625;51.080;16.970;2022-09-16T05:04:05;5.85;;;2.20;;
46889;SDS011;32625;51.080;16.970;2022-09-16T05:06:38;4.50;;;2.08;;
46889;SDS011;32625;51.080;16.970;2022-09-16T05:09:06;4.35;;;2.10;;
46889;SDS011;32625;51.080;16.970;2022-09-16T05:11:35;4.47;;;2.15;;
46889;SDS011;32625;51.080;16.970;2022-09-16T05:14:04;4.03;;;2.17;;
46889;SDS011;32625;51.080;16.970;2022-09-16T05:16:33;4.72;;;2.05;;
46889;SDS011;32625;51.080;16.970;2022-09-16T05:19:00;3.60;;;1.92;;
46889;SDS011;32625;51.080;16.970;2022-09-16T05:21:31;5.38;;;2.10;;
46889;SDS011;32625;51.080;16.970;2022-09-16T05:24:01;4.70;;;1.90;;
46889;SDS011;32625;51.080;16.970;2022-09-16T05:26:30;4.38;;;2.00;;
46889;SDS011;32625;51.080;16.970;2022-09-16T05:28:59;3.80;;;1.83;;
46889;SDS011;32625;51.080;16.970;2022-09-16T05:31:28;4.22;;;1.67;;
46889;SDS011;32625;51.080;16.970;2022-09-16T05:34:00;4.32;;;2.28;;
46889;SDS011;32625;51.080;16.970;2022-09-16T05:36:39;6.03;;;1.95;;
46889;SDS011;32625;51.080;16.970;2022-09-16T05:39:12;2.78;;;1.80;;
46889;SDS011;32625;51.080;16.970;2022-09-16T05:44:43;4.38;;;2.13;;
46889;SDS011;32625;51.080;16.970;2022-09-16T05:47:10;4.40;;;2.08;;
46889;SDS011;32625;51.080;16.970;2022-09-16T05:49:37;3.97;;;2.33;;
46889;SDS011;32625;51.080;16.970;2022-09-16T05:52:05;5.88;;;2.25;;
46889;SDS011;32625;51.080;16.970;2022-09-16T05:54:32;6.07;;;2.40;;
46889;SDS011;32625;51.080;16.970;2022-09-16T05:56:59;5.40;;;2.40;;
46889;SDS011;32625;51.080;16.970;2022-09-16T05:59:32;4.53;;;2.28;;
46889;SDS011;32625;51.080;16.970;2022-09-16T06:01:59;4.43;;;2.60;;
46889;SDS011;32625;51.080;16.970;2022-09-16T06:04:26;4.55;;;2.60;;
46889;SDS011;32625;51.080;16.970;2022-09-16T06:06:53;3.35;;;2.65;;
46889;SDS011;32625;51.080;16.970;2022-09-16T06:09:21;3.92;;;2.45;;
46889;SDS011;32625;51.080;16.970;2022-09-16T06:11:51;5.15;;;3.10;;
46889;SDS011;32625;51.080;16.970;2022-09-16T06:14:26;3.58;;;2.63;;
46889;SDS011;32625;51.080;16.970;2022-09-16T06:16:53;7.35;;;2.53;;
46889;SDS011;32625;51.080;16.970;2022-09-16T06:19:20;5.10;;;2.80;;
46889;SDS011;32625;51.080;16.970;2022-09-16T06:21:48;4.28;;;2.63;;
46889;SDS011;32625;51.080;16.970;2022-09-16T06:24:15;5.65;;;3.47;;
46889;SDS011;32625;51.080;16.970;2022-09-16T06:26:43;4.35;;;2.60;;
46889;SDS011;32625;51.080;16.970;2022-09-16T06:29:11;4.70;;;2.85;;
46889;SDS011;32625;51.080;16.970;2022-09-16T06:31:39;4.75;;;2.85;;
46889;SDS011;32625;51.080;16.970;2022-09-16T06:34:07;5.00;;;2.65;;
46889;SDS011;32625;51.080;16.970;2022-09-16T06:36:38;5.47;;;2.83;;
46889;SDS011;32625;51.080;16.970;2022-09-16T06:39:11;4.93;;;2.70;;
46889;SDS011;32625;51.080;16.970;2022-09-16T06:41:39;5.22;;;2.65;;
46889;SDS011;32625;51.080;16.970;2022-09-16T06:44:06;5.43;;;2.47;;
46889;SDS011;32625;51.080;16.970;2022-09-16T06:46:33;6.07;;;2.92;;
46889;SDS011;32625;51.080;16.970;2022-09-16T06:49:00;9.07;;;2.88;;
46889;SDS011;32625;51.080;16.970;2022-09-16T06:51:32;5.78;;;2.65;;
46889;SDS011;32625;51.080;16.970;2022-09-16T06:54:01;7.00;;;2.70;;
46889;SDS011;32625;51.080;16.970;2022-09-16T06:56:30;4.00;;;2.40;;
46889;SDS011;32625;51.080;16.970;2022-09-16T06:58:59;4.82;;;1.90;;
46889;SDS011;32625;51.080;16.970;2022-09-16T07:01:27;6.07;;;2.17;;
46889;SDS011;32625;51.080;16.970;2022-09-16T07:03:55;5.38;;;2.00;;
46889;SDS011;32625;51.080;16.970;2022-09-16T07:06:26;5.60;;;1.92;;
46889;SDS011;32625;51.080;16.970;2022-09-16T07:09:14;5.88;;;1.70;;
46889;SDS011;32625;51.080;16.970;2022-09-16T07:11:42;5.05;;;1.75;;
46889;SDS011;32625;51.080;16.970;2022-09-16T07:14:09;5.15;;;2.25;;
46889;SDS011;32625;51.080;16.970;2022-09-16T07:16:36;4.18;;;1.95;;
46889;SDS011;32625;51.080;16.970;2022-09-16T07:19:03;5.15;;;1.90;;
46889;SDS011;32625;51.080;16.970;2022-09-16T07:21:30;6.57;;;1.90;;
46889;SDS011;32625;51.080;16.970;2022-09-16T07:23:58;3.97;;;1.80;;
46889;SDS011;32625;51.080;16.970;2022-09-16T07:26:31;5.80;;;1.95;;
46889;SDS011;32625;51.080;16.970;2022-09-16T07:29:00;4.95;;;1.67;;
46889;SDS011;32625;51.080;16.970;2022-09-16T07:31:30;8.52;;;2.25;;
46889;SDS011;32625;51.080;16.970;2022-09-16T07:34:00;7.00;;;2.05;;
46889;SDS011;32625;51.080;16.970;2022-09-16T07:36:31;8.48;;;1.90;;
46889;SDS011;32625;51.080;16.970;2022-09-16T07:39:04;4.47;;;1.58;;
46889;SDS011;32625;51.080;16.970;2022-09-16T07:41:33;6.32;;;1.45;;
46889;SDS011;32625;51.080;16.970;2022-09-16T07:44:03;3.53;;;1.60;;
46889;SDS011;32625;51.080;16.970;2022-09-16T07:46:32;4.28;;;2.10;;
46889;SDS011;32625;51.080;16.970;2022-09-16T07:49:01;6.90;;;1.70;;
46889;SDS011;32625;51.080;16.970;2022-09-16T07:51:30;4.68;;;2.00;;
46889;SDS011;32625;51.080;16.970;2022-09-16T07:53:59;3.60;;;1.67;;
46889;SDS011;32625;51.080;16.970;2022-09-16T07:56:30;5.38;;;1.88;;
46889;SDS011;32625;51.080;16.970;2022-09-16T07:59:00;8.10;;;1.70;;
46889;SDS011;32625;51.080;16.970;2022-09-16T08:01:28;6.30;;;1.90;;
46889;SDS011;32625;51.080;16.970;2022-09-16T08:03:57;3.75;;;1.85;;
46889;SDS011;32625;51.080;16.970;2022-09-16T08:06:25;3.60;;;1.90;;
46889;SDS011;32625;51.080;16.970;2022-09-16T08:08:55;6.72;;;1.88;;
46889;SDS011;32625;51.080;16.970;2022-09-16T08:11:40;1.88;;;1.70;;
46889;SDS011;32625;51.080;16.970;2022-09-16T08:14:10;3.80;;;1.80;;
46889;SDS011;32625;51.080;16.970;2022-09-16T08:16:38;3.35;;;1.67;;
46889;SDS011;32625;51.080;16.970;2022-09-16T08:19:05;3.35;;;1.63;;
46889;SDS011;32625;51.080;16.970;2022-09-16T08:21:32;3.85;;;1.50;;
46889;SDS011;32625;51.080;16.970;2022-09-16T08:23:59;2.88;;;1.70;;
46889;SDS011;32625;51.080;16.970;2022-09-16T08:26:26;3.40;;;1.70;;
46889;SDS011;32625;51.080;16.970;2022-09-16T08:28:53;4.60;;;1.67;;
46889;SDS011;32625;51.080;16.970;2022-09-16T08:31:35;2.88;;;1.58;;
46889;SDS011;32625;51.080;16.970;2022-09-16T08:34:02;3.20;;;1.40;;
46889;SDS011;32625;51.080;16.970;2022-09-16T08:36:30;3.72;;;1.77;;
46889;SDS011;32625;51.080;16.970;2022-09-16T08:38:58;3.78;;;1.55;;
46889;SDS011;32625;51.080;16.970;2022-09-16T08:44:39;5.20;;;1.58;;
46889;SDS011;32625;51.080;16.970;2022-09-16T08:53:12;9.20;;;2.40;;
46889;SDS011;32625;51.080;16.970;2022-09-16T08:56:00;6.32;;;1.85;;
46889;SDS011;32625;51.080;16.970;2022-09-16T08:58:38;4.05;;;1.85;;
46889;SDS011;32625;51.080;16.970;2022-09-16T09:01:33;8.30;;;2.05;;
46889;SDS011;32625;51.080;16.970;2022-09-16T09:04:02;4.95;;;1.63;;
46889;SDS011;32625;51.080;16.970;2022-09-16T09:09:17;5.38;;;1.88;;
46889;SDS011;32625;51.080;16.970;2022-09-16T09:11:52;3.63;;;1.63;;
46889;SDS011;32625;51.080;16.970;2022-09-16T09:25:59;3.33;;;1.40;;
46889;SDS011;32625;51.080;16.970;2022-09-16T09:42:35;3.80;;;1.40;;
46889;SDS011;32625;51.080;16.970;2022-09-16T09:45:17;2.88;;;1.40;;
46889;SDS011;32625;51.080;16.970;2022-09-16T09:50:41;5.70;;;2.13;;
46889;SDS011;32625;51.080;16.970;2022-09-16T09:53:13;2.72;;;1.38;;
46889;SDS011;32625;51.080;16.970;2022-09-16T09:55:56;3.58;;;1.30;;
46889;SDS011;32625;51.080;16.970;2022-09-16T09:58:37;7.85;;;1.80;;
46889;SDS011;32625;51.080;16.970;2022-09-16T10:01:11;2.70;;;1.40;;
46889;SDS011;32625;51.080;16.970;2022-09-16T10:03:39;2.95;;;1.40;;
46889;SDS011;32625;51.080;16.970;2022-09-16T10:06:06;4.80;;;1.77;;
46889;SDS011;32625;51.080;16.970;2022-09-16T10:08:45;4.40;;;1.60;;
46889;SDS011;32625;51.080;16.970;2022-09-16T10:11:20;3.13;;;1.60;;
46889;SDS011;32625;51.080;16.970;2022-09-16T10:13:53;5.95;;;2.33;;
46889;SDS011;32625;51.080;16.970;2022-09-16T10:16:30;5.28;;;1.30;;
46889;SDS011;32625;51.080;16.970;2022-09-16T10:19:01;5.72;;;1.70;;
46889;SDS011;32625;51.080;16.970;2022-09-16T10:22:10;4.97;;;1.38;;
46889;SDS011;32625;51.080;16.970;2022-09-16T10:24:44;3.85;;;1.30;;
46889;SDS011;32625;51.080;16.970;2022-09-16T10:27:30;3.30;;;1.42;;
46889;SDS011;32625;51.080;16.970;2022-09-16T10:30:12;3.78;;;1.50;;
46889;SDS011;32625;51.080;16.970;2022-09-16T10:35:28;3.50;;;1.38;;
46889;SDS011;32625;51.080;16.970;2022-09-16T10:40:26;2.42;;;1.13;;
46889;SDS011;32625;51.080;16.970;2022-09-16T10:42:55;4.65;;;1.35;;
46889;SDS011;32625;51.080;16.970;2022-09-16T10:45:33;3.35;;;1.20;;
46889;SDS011;32625;51.080;16.970;2022-09-16T10:48:04;4.65;;;1.35;;
46889;SDS011;32625;51.080;16.970;2022-09-16T10:50:37;1.80;;;1.17;;
46889;SDS011;32625;51.080;16.970;2022-09-16T10:53:19;3.65;;;1.10;;
46889;SDS011;32625;51.080;16.970;2022-09-16T10:55:59;2.40;;;1.20;;
46889;SDS011;32625;51.080;16.970;2022-09-16T10:58:28;4.63;;;1.23;;
46889;SDS011;32625;51.080;16.970;2022-09-16T11:06:28;3.92;;;1.27;;
46889;SDS011;32625;51.080;16.970;2022-09-16T11:14:42;3.65;;;1.20;;
46889;SDS011;32625;51.080;16.970;2022-09-16T11:22:48;4.13;;;1.10;;
46889;SDS011;32625;51.080;16.970;2022-09-16T11:25:47;7.43;;;1.88;;
46889;SDS011;32625;51.080;16.970;2022-09-16T11:39:56;2.17;;;1.20;;
46889;SDS011;32625;51.080;16.970;2022-09-16T11:42:47;2.80;;;1.42;;
46889;SDS011;32625;51.080;16.970;2022-09-16T11:57:07;2.92;;;1.25;;
46889;SDS011;32625;51.080;16.970;2022-09-16T12:04:49;3.40;;;1.33;;
46889;SDS011;32625;51.080;16.970;2022-09-16T12:07:41;5.70;;;1.35;;
46889;SDS011;32625;51.080;16.970;2022-09-16T12:10:15;4.90;;;1.17;;
46889;SDS011;32625;51.080;16.970;2022-09-16T12:12:49;4.53;;;1.10;;
46889;SDS011;32625;51.080;16.970;2022-09-16T12:15:25;4.30;;;1.00;;
46889;SDS011;32625;51.080;16.970;2022-09-16T12:18:01;4.93;;;1.25;;
46889;SDS011;32625;51.080;16.970;2022-09-16T12:20:46;6.15;;;1.30;;
46889;SDS011;32625;51.080;16.970;2022-09-16T12:23:18;2.40;;;1.10;;
46889;SDS011;32625;51.080;16.970;2022-09-16T12:28:45;2.20;;;0.90;;
46889;SDS011;32625;51.080;16.970;2022-09-16T12:31:40;4.00;;;1.30;;
46889;SDS011;32625;51.080;16.970;2022-09-16T12:34:18;2.15;;;1.20;;
46889;SDS011;32625;51.080;16.970;2022-09-16T12:36:51;6.07;;;1.30;;
46889;SDS011;32625;51.080;16.970;2022-09-16T12:39:44;3.50;;;1.60;;
46889;SDS011;32625;51.080;16.970;2022-09-16T12:50:39;5.43;;;1.27;;
46889;SDS011;32625;51.080;16.970;2022-09-16T12:56:36;2.70;;;1.13;;
46889;SDS011;32625;51.080;16.970;2022-09-16T13:02:15;3.80;;;1.30;;
46889;SDS011;32625;51.080;16.970;2022-09-16T13:04:52;6.03;;;1.20;;
46889;SDS011;32625;51.080;16.970;2022-09-16T13:07:27;2.13;;;1.10;;
46889;SDS011;32625;51.080;16.970;2022-09-16T13:10:06;7.05;;;1.15;;
46889;SDS011;32625;51.080;16.970;2022-09-16T13:12:48;2.00;;;1.00;;
46889;SDS011;32625;51.080;16.970;2022-09-16T13:15:22;2.85;;;1.10;;
46889;SDS011;32625;51.080;16.970;2022-09-16T13:21:26;2.20;;;1.03;;
46889;SDS011;32625;51.080;16.970;2022-09-16T13:24:05;5.22;;;1.00;;
46889;SDS011;32625;51.080;16.970;2022-09-16T13:26:41;2.42;;;1.30;;
46889;SDS011;32625;51.080;16.970;2022-09-16T13:29:23;3.90;;;1.20;;
46889;SDS011;32625;51.080;16.970;2022-09-16T13:31:50;3.72;;;1.20;;
46889;SDS011;32625;51.080;16.970;2022-09-16T13:34:18;6.88;;;1.50;;
46889;SDS011;32625;51.080;16.970;2022-09-16T13:36:47;3.83;;;1.20;;
46889;SDS011;32625;51.080;16.970;2022-09-16T13:39:25;2.70;;;1.00;;
46889;SDS011;32625;51.080;16.970;2022-09-16T13:42:09;4.72;;;1.00;;
46889;SDS011;32625;51.080;16.970;2022-09-16T13:49:47;8.50;;;1.00;;
46889;SDS011;32625;51.080;16.970;2022-09-16T13:52:40;1.08;;;0.90;;
46889;SDS011;32625;51.080;16.970;2022-09-16T13:55:21;2.30;;;1.08;;
46889;SDS011;32625;51.080;16.970;2022-09-16T14:01:00;0.88;;;0.77;;
46889;SDS011;32625;51.080;16.970;2022-09-16T14:09:28;0.80;;;0.80;;
46889;SDS011;32625;51.080;16.970;2022-09-16T14:12:22;1.00;;;0.80;;
46889;SDS011;32625;51.080;16.970;2022-09-16T14:14:58;3.05;;;0.80;;
46889;SDS011;32625;51.080;16.970;2022-09-16T14:17:30;1.38;;;0.73;;
46889;SDS011;32625;51.080;16.970;2022-09-16T14:20:03;2.30;;;0.90;;
46889;SDS011;32625;51.080;16.970;2022-09-16T14:22:31;1.13;;;0.68;;
46889;SDS011;32625;51.080;16.970;2022-09-16T14:24:59;2.15;;;0.80;;
46889;SDS011;32625;51.080;16.970;2022-09-16T14:27:44;2.00;;;1.20;;
46889;SDS011;32625;51.080;16.970;2022-09-16T14:30:12;3.28;;;1.00;;
46889;SDS011;32625;51.080;16.970;2022-09-16T14:32:42;3.83;;;1.15;;
46889;SDS011;32625;51.080;16.970;2022-09-16T14:35:13;2.10;;;0.70;;
46889;SDS011;32625;51.080;16.970;2022-09-16T14:37:46;2.88;;;0.90;;
46889;SDS011;32625;51.080;16.970;2022-09-16T14:40:17;1.48;;;0.88;;
46889;SDS011;32625;51.080;16.970;2022-09-16T14:42:47;1.95;;;0.90;;
46889;SDS011;32625;51.080;16.970;2022-09-16T14:45:19;3.85;;;0.93;;
46889;SDS011;32625;51.080;16.970;2022-09-16T14:47:47;2.00;;;0.93;;
46889;SDS011;32625;51.080;16.970;2022-09-16T14:50:19;2.45;;;1.20;;
46889;SDS011;32625;51.080;16.970;2022-09-16T14:52:58;2.03;;;1.10;;
46889;SDS011;32625;51.080;16.970;2022-09-16T14:55:30;4.82;;;1.30;;
46889;SDS011;32625;51.080;16.970;2022-09-16T14:58:01;3.00;;;1.10;;
46889;SDS011;32625;51.080;16.970;2022-09-16T15:03:08;6.95;;;1.10;;
46889;SDS011;32625;51.080;16.970;2022-09-16T15:05:40;2.90;;;0.90;;
46889;SDS011;32625;51.080;16.970;2022-09-16T15:08:16;1.63;;;1.13;;
46889;SDS011;32625;51.080;16.970;2022-09-16T15:10:58;4.15;;;1.15;;
46889;SDS011;32625;51.080;16.970;2022-09-16T15:13:56;7.25;;;1.15;;
46889;SDS011;32625;51.080;16.970;2022-09-16T15:16:24;3.80;;;1.13;;
46889;SDS011;32625;51.080;16.970;2022-09-16T15:21:31;2.05;;;1.13;;
46889;SDS011;32625;51.080;16.970;2022-09-16T15:24:01;1.50;;;0.80;;
46889;SDS011;32625;51.080;16.970;2022-09-16T15:31:47;2.72;;;1.10;;
46889;SDS011;32625;51.080;16.970;2022-09-16T15:36:44;4.05;;;1.05;;
46889;SDS011;32625;51.080;16.970;2022-09-16T15:39:26;3.28;;;1.00;;
46889;SDS011;32625;51.080;16.970;2022-09-16T15:44:44;1.80;;;1.15;;
46889;SDS011;32625;51.080;16.970;2022-09-16T15:47:36;2.20;;;0.90;;
46889;SDS011;32625;51.080;16.970;2022-09-16T15:55:36;1.02;;;0.88;;
46889;SDS011;32625;51.080;16.970;2022-09-16T16:06:10;2.63;;;1.23;;
46889;SDS011;32625;51.080;16.970;2022-09-16T16:08:39;2.45;;;1.08;;
46889;SDS011;32625;51.080;16.970;2022-09-16T16:11:14;2.78;;;1.10;;
46889;SDS011;32625;51.080;16.970;2022-09-16T16:13:42;1.50;;;1.13;;
46889;SDS011;32625;51.080;16.970;2022-09-16T16:16:10;6.85;;;1.50;;
46889;SDS011;32625;51.080;16.970;2022-09-16T16:18:38;8.68;;;1.40;;
46889;SDS011;32625;51.080;16.970;2022-09-16T16:21:08;4.75;;;1.60;;
46889;SDS011;32625;51.080;16.970;2022-09-16T16:23:37;12.55;;;1.95;;
46889;SDS011;32625;51.080;16.970;2022-09-16T16:26:05;13.75;;;1.70;;
46889;SDS011;32625;51.080;16.970;2022-09-16T16:28:34;9.90;;;1.65;;
46889;SDS011;32625;51.080;16.970;2022-09-16T16:31:07;4.32;;;1.20;;
46889;SDS011;32625;51.080;16.970;2022-09-16T16:36:11;7.13;;;2.15;;
46889;SDS011;32625;51.080;16.970;2022-09-16T16:38:42;1.77;;;1.13;;
46889;SDS011;32625;51.080;16.970;2022-09-16T16:41:11;3.53;;;1.20;;
46889;SDS011;32625;51.080;16.970;2022-09-16T16:43:39;2.30;;;1.23;;
46889;SDS011;32625;51.080;16.970;2022-09-16T16:46:06;2.67;;;1.48;;
46889;SDS011;32625;51.080;16.970;2022-09-16T16:48:34;5.40;;;1.30;;
46889;SDS011;32625;51.080;16.970;2022-09-16T16:51:02;2.58;;;1.52;;
46889;SDS011;32625;51.080;16.970;2022-09-16T16:53:33;2.55;;;1.38;;
46889;SDS011;32625;51.080;16.970;2022-09-16T16:56:01;1.98;;;1.10;;
46889;SDS011;32625;51.080;16.970;2022-09-16T16:58:40;4.95;;;1.50;;
46889;SDS011;32625;51.080;16.970;2022-09-16T17:01:15;2.30;;;1.40;;
46889;SDS011;32625;51.080;16.970;2022-09-16T17:03:44;2.30;;;1.33;;
46889;SDS011;32625;51.080;16.970;2022-09-16T17:06:14;3.42;;;1.33;;
46889;SDS011;32625;51.080;16.970;2022-09-16T17:08:42;4.18;;;1.90;;
46889;SDS011;32625;51.080;16.970;2022-09-16T17:11:14;2.00;;;1.77;;
46889;SDS011;32625;51.080;16.970;2022-09-16T17:13:44;6.18;;;2.03;;
46889;SDS011;32625;51.080;16.970;2022-09-16T17:16:14;5.20;;;2.17;;
46889;SDS011;32625;51.080;16.970;2022-09-16T17:18:43;3.80;;;2.00;;
46889;SDS011;32625;51.080;16.970;2022-09-16T17:21:12;1.60;;;1.25;;
46889;SDS011;32625;51.080;16.970;2022-09-16T17:23:41;11.95;;;2.30;;
46889;SDS011;32625;51.080;16.970;2022-09-16T17:26:09;3.17;;;1.27;;
46889;SDS011;32625;51.080;16.970;2022-09-16T17:28:37;3.35;;;1.50;;
46889;SDS011;32625;51.080;16.970;2022-09-16T17:31:15;5.65;;;1.40;;
46889;SDS011;32625;51.080;16.970;2022-09-16T17:33:47;3.03;;;1.45;;
46889;SDS011;32625;51.080;16.970;2022-09-16T17:36:15;2.00;;;1.60;;
46889;SDS011;32625;51.080;16.970;2022-09-16T17:38:46;2.20;;;1.30;;
46889;SDS011;32625;51.080;16.970;2022-09-16T17:41:17;2.67;;;1.40;;
46889;SDS011;32625;51.080;16.970;2022-09-16T17:43:44;3.60;;;1.63;;
46889;SDS011;32625;51.080;16.970;2022-09-16T17:46:12;1.80;;;1.30;;
46889;SDS011;32625;51.080;16.970;2022-09-16T17:48:41;2.22;;;1.38;;
46889;SDS011;32625;51.080;16.970;2022-09-16T17:51:09;4.00;;;1.48;;
46889;SDS011;32625;51.080;16.970;2022-09-16T17:53:36;5.68;;;1.75;;
46889;SDS011;32625;51.080;16.970;2022-09-16T17:56:05;5.68;;;1.67;;
46889;SDS011;32625;51.080;16.970;2022-09-16T17:58:37;2.35;;;1.58;;
46889;SDS011;32625;51.080;16.970;2022-09-16T18:01:06;4.70;;;1.98;;
46889;SDS011;32625;51.080;16.970;2022-09-16T18:03:35;4.43;;;1.80;;
46889;SDS011;32625;51.080;16.970;2022-09-16T18:06:05;5.22;;;1.60;;
46889;SDS011;32625;51.080;16.970;2022-09-16T18:08:37;3.10;;;1.57;;
46889;SDS011;32625;51.080;16.970;2022-09-16T18:11:06;4.53;;;1.40;;
46889;SDS011;32625;51.080;16.970;2022-09-16T18:13:34;6.20;;;1.90;;
46889;SDS011;32625;51.080;16.970;2022-09-16T18:16:03;3.15;;;1.85;;
46889;SDS011;32625;51.080;16.970;2022-09-16T18:18:39;2.78;;;1.85;;
46889;SDS011;32625;51.080;16.970;2022-09-16T18:21:08;2.35;;;1.90;;
46889;SDS011;32625;51.080;16.970;2022-09-16T18:23:37;3.95;;;1.90;;
46889;SDS011;32625;51.080;16.970;2022-09-16T18:26:04;5.82;;;1.90;;
46889;SDS011;32625;51.080;16.970;2022-09-16T18:28:34;3.47;;;1.80;;